createdAt,value
2023-02-27T00:00:46.415Z,71.62
2023-02-27T00:01:48.817Z,71.54
2023-02-27T00:02:52.350Z,71.68
2023-02-27T00:03:55.256Z,71.62
2023-02-27T00:04:58.060Z,71.74
2023-02-27T00:06:00.604Z,71.62
2023-02-27T00:07:03.303Z,71.55
2023-02-27T00:08:05.485Z,71.64
2023-02-27T00:09:08.409Z,71.98
2023-02-27T00:10:12.093Z,72.19
2023-02-27T00:11:14.549Z,72.05
2023-02-27T00:12:16.772Z,71.98
2023-02-27T00:13:19.402Z,72.36
2023-02-27T00:14:22.470Z,72.34
2023-02-27T00:15:25.079Z,72.28
2023-02-27T00:16:27.395Z,72.45
2023-02-27T00:17:29.801Z,72.30
2023-02-27T00:18:32.059Z,72.33
2023-02-27T00:19:34.235Z,72.65
2023-02-27T00:20:38.314Z,72.65
2023-02-27T00:21:40.937Z,72.50
2023-02-27T00:22:44.311Z,72.59
2023-02-27T00:23:46.483Z,72.90
2023-02-27T00:24:48.655Z,73.19
2023-02-27T00:25:52.240Z,72.99
2023-02-27T00:26:54.456Z,72.92
2023-02-27T00:27:57.196Z,72.86
2023-02-27T00:28:59.404Z,72.62
2023-02-27T00:30:01.840Z,72.64
2023-02-27T00:31:05.838Z,72.72
2023-02-27T00:32:08.205Z,72.59
2023-02-27T00:33:10.445Z,72.53
2023-02-27T00:34:12.819Z,72.45
2023-02-27T00:35:15.104Z,72.63
2023-02-27T00:36:17.366Z,72.91
2023-02-27T00:37:19.569Z,72.44
2023-02-27T00:38:22.764Z,72.28
2023-02-27T00:39:24.993Z,71.91
2023-02-27T00:40:27.235Z,72.29
2023-02-27T00:41:29.407Z,72.00
2023-02-27T00:42:34.689Z,72.49
2023-02-27T00:43:37.451Z,72.45
2023-02-27T00:44:40.844Z,72.41
2023-02-27T00:45:43.161Z,72.91
2023-02-27T00:46:45.423Z,72.73
2023-02-27T00:47:47.907Z,72.93
2023-02-27T00:48:50.866Z,73.27
2023-02-27T00:49:53.102Z,72.73
2023-02-27T00:50:55.313Z,72.80
2023-02-27T00:51:57.800Z,72.71
2023-02-27T00:53:00.386Z,72.76
2023-02-27T00:54:03.696Z,73.02
2023-02-27T00:55:06.666Z,72.78
2023-02-27T00:56:08.839Z,72.76
2023-02-27T00:57:11.326Z,72.71
2023-02-27T00:58:13.712Z,72.26
2023-02-27T00:59:15.913Z,72.23
2023-02-27T01:00:18.689Z,72.38
2023-02-27T01:01:20.894Z,72.16
2023-02-27T01:02:23.343Z,72.54
2023-02-27T01:03:25.908Z,72.29
2023-02-27T01:04:29.114Z,72.09
2023-02-27T01:05:31.353Z,72.14
2023-02-27T01:06:35.095Z,71.96
2023-02-27T01:07:37.758Z,71.39
2023-02-27T01:08:40.038Z,71.03
2023-02-27T01:09:42.314Z,71.19
2023-02-27T01:10:44.698Z,70.93
2023-02-27T01:11:46.904Z,71.49
2023-02-27T01:12:50.384Z,71.15
2023-02-27T01:13:52.785Z,71.13
2023-02-27T01:14:54.978Z,71.58
2023-02-27T01:15:57.295Z,71.13
2023-02-27T01:16:59.595Z,70.63
2023-02-27T01:18:02.248Z,71.27
2023-02-27T01:19:04.729Z,71.30
2023-02-27T01:20:08.681Z,71.21
2023-02-27T01:21:10.915Z,71.18
2023-02-27T01:22:13.241Z,70.90
2023-02-27T01:23:16.988Z,70.82
2023-02-27T01:24:19.933Z,70.36
2023-02-27T01:25:23.629Z,70.35
2023-02-27T01:26:26.287Z,69.95
2023-02-27T01:27:28.681Z,69.30
2023-02-27T01:28:31.150Z,68.72
2023-02-27T01:29:33.632Z,68.81
2023-02-27T01:30:37.316Z,69.00
2023-02-27T01:31:39.531Z,69.05
2023-02-27T01:32:42.271Z,69.51
2023-02-27T01:33:48.998Z,69.57
2023-02-27T01:34:51.284Z,69.72
2023-02-27T01:35:53.981Z,69.36
2023-02-27T01:36:56.369Z,69.90
2023-02-27T01:37:58.828Z,69.76
2023-02-27T01:39:01.357Z,69.83
2023-02-27T01:40:04.676Z,70.04
2023-02-27T01:41:07.862Z,69.99
2023-02-27T01:42:28.674Z,69.69
2023-02-27T01:43:32.261Z,69.53
2023-02-27T01:45:18.050Z,69.21
2023-02-27T01:46:20.422Z,69.52
2023-02-27T01:47:22.670Z,69.54
2023-02-27T01:48:36.778Z,69.52
2023-02-27T01:49:39.838Z,69.60
2023-02-27T01:50:49.809Z,69.75
2023-02-27T01:51:56.709Z,69.96
2023-02-27T01:53:01.219Z,70.03
2023-02-27T01:54:07.341Z,69.30
2023-02-27T01:55:13.105Z,69.92
2023-02-27T01:56:17.704Z,69.75
2023-02-27T01:57:20.020Z,69.58
2023-02-27T01:58:22.732Z,69.96
2023-02-27T01:59:25.417Z,69.96
2023-02-27T02:00:27.656Z,69.85
2023-02-27T02:01:32.965Z,69.10
2023-02-27T02:02:42.315Z,69.10
2023-02-27T02:03:55.265Z,69.16
2023-02-27T02:04:57.805Z,68.96
2023-02-27T02:06:03.037Z,68.71
2023-02-27T02:07:09.393Z,68.62
2023-02-27T02:08:18.005Z,68.57
2023-02-27T02:09:22.408Z,68.40
2023-02-27T02:10:25.134Z,68.79
2023-02-27T02:11:28.976Z,68.73
2023-02-27T02:12:36.771Z,68.46
2023-02-27T02:13:43.202Z,69.07
2023-02-27T02:14:47.132Z,68.94
2023-02-27T02:16:23.433Z,69.21
2023-02-27T02:17:53.407Z,68.82
2023-02-27T02:19:30.014Z,69.26
2023-02-27T02:21:04.062Z,68.56
2023-02-27T02:22:43.925Z,68.90
2023-02-27T02:24:04.823Z,69.30
2023-02-27T02:25:44.378Z,68.74
2023-02-27T02:27:18.988Z,68.70
2023-02-27T02:28:44.133Z,68.81
2023-02-27T02:30:11.793Z,68.88
2023-02-27T02:31:20.082Z,69.47
2023-02-27T02:32:25.491Z,69.63
2023-02-27T02:34:01.863Z,69.39
2023-02-27T02:35:40.165Z,69.51
2023-02-27T02:36:48.293Z,69.94
2023-02-27T02:38:18.004Z,69.98
2023-02-27T02:39:44.686Z,70.29
2023-02-27T02:40:52.881Z,70.51
2023-02-27T02:42:05.009Z,70.38
2023-02-27T02:43:18.081Z,70.62
2023-02-27T02:44:31.078Z,70.61
2023-02-27T02:45:57.124Z,70.87
2023-02-27T02:47:06.520Z,71.01
2023-02-27T02:48:08.928Z,70.69
2023-02-27T02:49:15.089Z,71.00
2023-02-27T02:50:25.883Z,70.71
2023-02-27T02:51:39.784Z,70.93
2023-02-27T02:53:04.420Z,70.71
2023-02-27T02:54:17.779Z,70.89
2023-02-27T02:55:35.427Z,70.93
2023-02-27T02:57:24.668Z,70.93
2023-02-27T02:58:32.479Z,71.50
2023-02-27T03:00:10.158Z,71.50
2023-02-27T03:01:22.110Z,71.30
2023-02-27T03:02:30.501Z,71.69
2023-02-27T03:03:36.311Z,71.80
2023-02-27T03:04:49.812Z,72.10
2023-02-27T03:06:00.533Z,72.27
2023-02-27T03:07:13.873Z,72.22
2023-02-27T03:08:24.955Z,72.44
2023-02-27T03:09:34.171Z,72.78
2023-02-27T03:10:40.557Z,73.01
2023-02-27T03:11:47.457Z,73.01
2023-02-27T03:12:59.494Z,72.87
2023-02-27T03:14:18.810Z,73.13
2023-02-27T03:15:37.068Z,72.96
2023-02-27T03:16:46.373Z,72.97
2023-02-27T03:17:59.533Z,72.76
2023-02-27T03:19:22.179Z,72.94
2023-02-27T03:20:29.778Z,72.91
2023-02-27T03:21:42.923Z,72.67
2023-02-27T03:22:50.234Z,72.48
2023-02-27T03:23:56.174Z,72.47
2023-02-27T03:25:02.434Z,72.52
2023-02-27T03:26:06.204Z,72.57
2023-02-27T03:27:09.838Z,72.98
2023-02-27T03:28:17.368Z,73.08
2023-02-27T03:29:58.078Z,72.52
2023-02-27T03:31:07.331Z,72.15
2023-02-27T03:32:48.330Z,71.87
2023-02-27T03:34:01.454Z,72.07
2023-02-27T03:35:07.193Z,72.09
2023-02-27T03:36:18.967Z,71.86
2023-02-27T03:37:38.516Z,71.77
2023-02-27T03:38:51.265Z,72.17
2023-02-27T03:40:08.956Z,71.49
2023-02-27T03:41:28.595Z,71.39
2023-02-27T03:43:17.603Z,71.52
2023-02-27T03:44:36.320Z,71.37
2023-02-27T03:46:08.576Z,71.58
2023-02-27T03:47:10.908Z,72.17
2023-02-27T03:48:13.638Z,72.59
2023-02-27T03:49:15.851Z,72.93
2023-02-27T03:50:18.589Z,72.44
2023-02-27T03:51:23.642Z,72.20
2023-02-27T03:52:29.792Z,72.43
2023-02-27T03:53:45.720Z,72.60
2023-02-27T03:54:57.404Z,72.70
2023-02-27T03:56:02.970Z,72.39
2023-02-27T03:57:07.757Z,72.22
2023-02-27T03:58:10.538Z,71.63
2023-02-27T03:59:14.082Z,71.49
2023-02-27T04:00:24.767Z,71.23
2023-02-27T04:01:27.695Z,71.12
2023-02-27T04:02:30.261Z,71.13
2023-02-27T04:03:39.312Z,71.20
2023-02-27T04:04:42.607Z,70.57
2023-02-27T04:05:47.503Z,70.52
2023-02-27T04:07:22.650Z,70.77
2023-02-27T04:08:54.796Z,70.95
2023-02-27T04:10:14.867Z,71.42
2023-02-27T04:11:29.407Z,71.81
2023-02-27T04:12:41.563Z,71.26
2023-02-27T04:14:06.953Z,71.03
2023-02-27T04:15:09.117Z,70.97
2023-02-27T04:16:23.115Z,70.44
2023-02-27T04:17:29.642Z,70.00
2023-02-27T04:18:59.796Z,69.57
2023-02-27T04:20:36.547Z,69.70
2023-02-27T04:22:10.776Z,69.40
2023-02-27T04:23:27.431Z,69.77
2023-02-27T04:24:51.131Z,69.86
2023-02-27T04:26:08.185Z,69.98
2023-02-27T04:27:34.980Z,70.37
2023-02-27T04:28:43.710Z,70.54
2023-02-27T04:29:56.454Z,70.27
2023-02-27T04:31:20.287Z,70.31
2023-02-27T04:32:35.764Z,70.29
2023-02-27T04:34:06.701Z,70.41
2023-02-27T04:35:17.370Z,70.70
2023-02-27T04:36:42.813Z,70.29
2023-02-27T04:37:52.592Z,70.71
2023-02-27T04:39:00.671Z,70.45
2023-02-27T04:40:09.379Z,71.13
2023-02-27T04:41:47.548Z,70.91
2023-02-27T04:42:56.932Z,70.93
2023-02-27T04:44:00.709Z,70.38
2023-02-27T04:45:06.430Z,70.31
2023-02-27T04:46:12.523Z,70.42
2023-02-27T04:47:17.694Z,70.27
2023-02-27T04:48:25.476Z,70.00
2023-02-27T04:49:40.428Z,70.10
2023-02-27T04:50:50.132Z,69.86
2023-02-27T04:52:11.077Z,69.78
2023-02-27T04:53:19.839Z,70.04
2023-02-27T04:54:29.253Z,70.05
2023-02-27T04:55:37.212Z,69.93
2023-02-27T04:56:47.893Z,70.37
2023-02-27T04:57:53.379Z,70.17
2023-02-27T04:59:00.589Z,70.23
2023-02-27T05:00:07.992Z,70.50
2023-02-27T05:01:18.988Z,70.18
2023-02-27T05:02:33.171Z,70.07
2023-02-27T05:03:42.989Z,70.04
2023-02-27T05:04:47.854Z,70.06
2023-02-27T05:05:55.069Z,70.33
2023-02-27T05:07:00.363Z,70.20
2023-02-27T05:08:09.282Z,70.57
2023-02-27T05:09:33.211Z,70.74
2023-02-27T05:10:58.060Z,70.38
2023-02-27T05:12:05.931Z,70.21
2023-02-27T05:13:25.171Z,70.84
2023-02-27T05:14:33.081Z,71.24
2023-02-27T05:15:45.981Z,71.60
2023-02-27T05:16:58.678Z,71.78
2023-02-27T05:18:14.823Z,71.50
2023-02-27T05:19:18.045Z,71.63
2023-02-27T05:20:21.981Z,71.25
2023-02-27T05:21:45.384Z,70.97
2023-02-27T05:22:56.567Z,70.20
2023-02-27T05:24:23.214Z,69.44
2023-02-27T05:25:50.052Z,69.20
2023-02-27T05:27:01.348Z,69.52
2023-02-27T05:28:17.471Z,69.43
2023-02-27T05:29:47.093Z,69.32
2023-02-27T05:30:57.236Z,69.03
2023-02-27T05:32:15.157Z,69.23
2023-02-27T05:33:33.422Z,69.71
2023-02-27T05:34:44.683Z,69.51
2023-02-27T05:36:11.094Z,70.18
2023-02-27T05:37:36.266Z,70.51
2023-02-27T05:38:52.316Z,70.74
2023-02-27T05:39:54.564Z,70.80
2023-02-27T05:41:06.362Z,70.77
2023-02-27T05:42:36.818Z,70.57
2023-02-27T05:43:47.148Z,70.18
2023-02-27T05:44:54.463Z,70.21
2023-02-27T05:46:03.514Z,69.88
2023-02-27T05:47:10.706Z,70.44
2023-02-27T05:48:19.538Z,70.50
2023-02-27T05:49:37.284Z,70.37
2023-02-27T05:50:41.065Z,69.92
2023-02-27T05:51:47.030Z,69.93
2023-02-27T05:52:51.780Z,70.26
2023-02-27T05:54:02.745Z,70.20
2023-02-27T05:55:08.624Z,70.15
2023-02-27T05:56:14.212Z,69.92
2023-02-27T05:57:24.393Z,69.71
2023-02-27T05:58:42.689Z,69.92
2023-02-27T05:59:59.942Z,69.77
2023-02-27T06:01:05.362Z,70.28
2023-02-27T06:02:07.596Z,70.18
2023-02-27T06:03:10.115Z,70.55
2023-02-27T06:04:13.574Z,70.69
2023-02-27T06:05:17.829Z,70.97
2023-02-27T06:06:20.848Z,71.21
2023-02-27T06:07:23.585Z,71.25
2023-02-27T06:08:26.321Z,70.98
2023-02-27T06:09:29.004Z,70.62
2023-02-27T06:10:31.589Z,70.20
2023-02-27T06:11:33.787Z,70.41
2023-02-27T06:12:36.203Z,70.08
2023-02-27T06:13:41.525Z,69.87
2023-02-27T06:14:44.292Z,69.97
2023-02-27T06:15:47.012Z,70.20
2023-02-27T06:16:49.198Z,70.08
2023-02-27T06:17:51.549Z,69.80
2023-02-27T06:18:55.442Z,70.00
2023-02-27T06:19:57.620Z,69.99
2023-02-27T06:21:00.050Z,70.37
2023-02-27T06:22:02.348Z,70.49
2023-02-27T06:23:04.676Z,70.25
2023-02-27T06:24:06.829Z,70.49
2023-02-27T06:25:10.668Z,70.85
2023-02-27T06:26:14.512Z,71.01
2023-02-27T06:27:17.453Z,70.92
2023-02-27T06:28:19.653Z,70.81
2023-02-27T06:29:21.957Z,70.76
2023-02-27T06:30:24.404Z,71.06
2023-02-27T06:31:27.038Z,70.83
2023-02-27T06:32:29.242Z,71.12
2023-02-27T06:33:31.400Z,70.85
2023-02-27T06:34:33.589Z,70.86
2023-02-27T06:35:35.866Z,70.54
2023-02-27T06:36:38.325Z,70.54
2023-02-27T06:37:40.465Z,70.37
2023-02-27T06:38:42.697Z,70.41
2023-02-27T06:39:45.077Z,70.44
2023-02-27T06:40:47.271Z,70.35
2023-02-27T06:41:49.860Z,70.19
2023-02-27T06:42:52.176Z,70.35
2023-02-27T06:43:55.701Z,70.63
2023-02-27T06:44:58.324Z,70.63
2023-02-27T06:46:00.998Z,70.58
2023-02-27T06:47:03.398Z,70.72
2023-02-27T06:48:05.918Z,70.58
2023-02-27T06:49:08.145Z,70.90
2023-02-27T06:50:12.890Z,70.92
2023-02-27T06:51:15.356Z,71.00
2023-02-27T06:52:17.778Z,71.08
2023-02-27T06:53:20.338Z,71.31
2023-02-27T06:54:23.019Z,71.51
2023-02-27T06:55:25.754Z,71.48
2023-02-27T06:56:28.334Z,71.96
2023-02-27T06:57:31.621Z,72.20
2023-02-27T06:58:33.790Z,72.52
2023-02-27T06:59:35.993Z,72.58
2023-02-27T07:00:38.209Z,72.88
2023-02-27T07:01:40.410Z,72.65
2023-02-27T07:02:43.700Z,72.26
2023-02-27T07:03:45.948Z,71.33
2023-02-27T07:04:48.289Z,71.20
2023-02-27T07:05:50.702Z,70.99
2023-02-27T07:07:32.987Z,71.12
2023-02-27T07:08:17.673Z,70.60
2023-02-27T07:09:19.874Z,70.53
2023-02-27T07:10:22.097Z,70.61
2023-02-27T07:11:24.911Z,70.98
2023-02-27T07:12:27.249Z,70.80
2023-02-27T07:13:29.452Z,71.00
2023-02-27T07:14:31.681Z,71.25
2023-02-27T07:15:34.086Z,71.30
2023-02-27T07:16:36.532Z,71.26
2023-02-27T07:17:39.148Z,70.26
2023-02-27T07:18:41.851Z,70.28
2023-02-27T07:19:45.432Z,70.14
2023-02-27T07:20:51.153Z,70.03
2023-02-27T07:21:53.550Z,70.18
2023-02-27T07:22:56.147Z,71.09
2023-02-27T07:23:58.392Z,70.79
2023-02-27T07:25:00.810Z,70.88
2023-02-27T07:26:02.986Z,70.96
2023-02-27T07:27:05.294Z,71.42
2023-02-27T07:28:08.042Z,71.58
2023-02-27T07:29:10.466Z,71.60
2023-02-27T07:30:13.137Z,71.37
2023-02-27T07:31:15.564Z,71.25
2023-02-27T07:32:17.854Z,71.18
2023-02-27T07:33:20.618Z,71.01
2023-02-27T07:34:22.776Z,70.77
2023-02-27T07:35:25.048Z,70.76
2023-02-27T07:36:27.719Z,70.89
2023-02-27T07:37:30.154Z,70.87
2023-02-27T07:38:32.608Z,69.92
2023-02-27T07:39:34.827Z,69.74
2023-02-27T07:40:37.005Z,68.73
2023-02-27T07:41:39.274Z,68.46
2023-02-27T07:42:41.547Z,67.90
2023-02-27T07:43:44.123Z,68.08
2023-02-27T07:44:46.457Z,67.51
2023-02-27T07:45:51.043Z,67.25
2023-02-27T07:46:53.303Z,66.44
2023-02-27T07:47:55.513Z,66.26
2023-02-27T07:48:57.869Z,65.75
2023-02-27T07:50:00.065Z,65.63
2023-02-27T07:51:02.334Z,65.70
2023-02-27T07:52:04.522Z,65.56
2023-02-27T07:53:08.014Z,66.34
2023-02-27T07:54:10.608Z,66.29
2023-02-27T07:55:14.319Z,66.20
2023-02-27T07:56:16.682Z,65.67
2023-02-27T07:57:18.874Z,64.82
2023-02-27T07:58:21.312Z,64.56
2023-02-27T07:59:23.896Z,64.34
2023-02-27T08:00:26.349Z,64.21
2023-02-27T08:01:28.662Z,64.45
2023-02-27T08:02:30.855Z,64.75
2023-02-27T08:03:33.313Z,65.26
2023-02-27T08:04:35.635Z,65.72
2023-02-27T08:05:37.944Z,66.19
2023-02-27T08:06:40.399Z,66.65
2023-02-27T08:07:42.930Z,66.61
2023-02-27T08:08:45.948Z,66.20
2023-02-27T08:09:48.193Z,65.96
2023-02-27T08:10:50.590Z,65.55
2023-02-27T08:11:52.736Z,64.82
2023-02-27T08:12:55.151Z,63.94
2023-02-27T08:14:02.110Z,63.04
2023-02-27T08:15:05.511Z,62.27
2023-02-27T08:16:08.268Z,61.61
2023-02-27T08:17:10.732Z,61.62
2023-02-27T08:18:12.934Z,61.87
2023-02-27T08:19:15.408Z,61.52
2023-02-27T08:20:22.512Z,61.30
2023-02-27T08:21:25.016Z,60.96
2023-02-27T08:22:27.441Z,60.89
2023-02-27T08:23:29.704Z,61.21
2023-02-27T08:24:32.134Z,61.40
2023-02-27T08:25:34.422Z,61.92
2023-02-27T08:26:36.705Z,62.29
2023-02-27T08:27:38.936Z,62.97
2023-02-27T08:28:41.700Z,63.41
2023-02-27T08:29:45.628Z,63.73
2023-02-27T08:30:55.129Z,64.24
2023-02-27T08:31:57.862Z,64.59
2023-02-27T08:33:00.267Z,64.61
2023-02-27T08:34:10.166Z,64.53
2023-02-27T08:35:13.576Z,64.46
2023-02-27T08:36:15.788Z,66.25
2023-02-27T08:37:18.296Z,67.61
2023-02-27T08:38:20.864Z,67.23
2023-02-27T08:39:25.779Z,66.30
2023-02-27T08:40:28.265Z,65.59
2023-02-27T08:41:30.539Z,64.56
2023-02-27T08:42:33.661Z,64.21
2023-02-27T08:43:36.013Z,62.81
2023-02-27T08:44:38.466Z,63.10
2023-02-27T08:45:40.793Z,63.58
2023-02-27T08:46:43.020Z,65.61
2023-02-27T08:47:48.016Z,65.93
2023-02-27T08:48:50.280Z,65.79
2023-02-27T08:49:52.597Z,65.56
2023-02-27T08:50:57.387Z,65.33
2023-02-27T08:52:01.148Z,65.14
2023-02-27T08:53:03.342Z,65.12
2023-02-27T08:54:05.896Z,66.41
2023-02-27T08:55:09.338Z,66.99
2023-02-27T08:56:11.644Z,67.40
2023-02-27T08:57:13.818Z,67.54
2023-02-27T08:58:18.063Z,66.66
2023-02-27T08:59:20.422Z,67.45
2023-02-27T09:00:23.638Z,68.37
2023-02-27T09:01:28.560Z,68.74
2023-02-27T09:02:31.145Z,69.67
2023-02-27T09:03:33.629Z,71.34
2023-02-27T09:04:36.103Z,70.61
2023-02-27T09:05:38.773Z,69.33
2023-02-27T09:06:40.980Z,68.58
2023-02-27T09:07:43.291Z,67.47
2023-02-27T09:08:45.484Z,66.95
2023-02-27T09:09:49.733Z,66.58
2023-02-27T09:10:57.306Z,66.38
2023-02-27T09:11:59.545Z,65.88
2023-02-27T09:13:02.226Z,66.77
2023-02-27T09:14:04.856Z,66.88
2023-02-27T09:15:07.740Z,67.33
2023-02-27T09:16:10.296Z,66.62
2023-02-27T09:17:12.550Z,65.62
2023-02-27T09:18:14.777Z,65.29
2023-02-27T09:19:17.031Z,65.16
2023-02-27T09:20:19.226Z,64.64
2023-02-27T09:21:23.628Z,64.70
2023-02-27T09:22:25.897Z,64.72
2023-02-27T09:23:28.091Z,65.03
2023-02-27T09:24:30.578Z,64.93
2023-02-27T09:25:32.975Z,65.25
2023-02-27T09:26:43.626Z,66.01
2023-02-27T09:27:48.099Z,66.23
2023-02-27T09:28:50.463Z,66.18
2023-02-27T09:29:55.579Z,66.95
2023-02-27T09:31:08.659Z,67.30
2023-02-27T09:32:10.900Z,67.01
2023-02-27T09:33:15.182Z,66.53
2023-02-27T09:34:17.404Z,66.32
2023-02-27T09:35:23.089Z,65.67
2023-02-27T09:36:25.984Z,65.17
2023-02-27T09:37:28.460Z,64.95
2023-02-27T09:38:31.108Z,65.05
2023-02-27T09:39:33.322Z,65.06
2023-02-27T09:40:41.298Z,65.09
2023-02-27T09:41:53.953Z,66.08
2023-02-27T09:43:00.680Z,67.04
2023-02-27T09:44:03.279Z,67.34
2023-02-27T09:45:09.799Z,66.88
2023-02-27T09:46:19.364Z,66.24
2023-02-27T09:47:46.016Z,66.91
2023-02-27T09:48:53.619Z,66.88
2023-02-27T09:50:03.919Z,66.93
2023-02-27T09:51:06.660Z,65.68
2023-02-27T09:52:13.750Z,65.11
2023-02-27T09:53:30.908Z,64.97
2023-02-27T09:54:34.468Z,64.76
2023-02-27T09:55:40.559Z,64.36
2023-02-27T09:56:54.055Z,64.47
2023-02-27T09:58:22.040Z,64.08
2023-02-27T09:59:36.272Z,64.29
2023-02-27T10:00:52.177Z,64.21
2023-02-27T10:02:06.505Z,64.21
2023-02-27T10:03:27.838Z,65.80
2023-02-27T10:04:44.652Z,65.91
2023-02-27T10:06:18.293Z,65.75
2023-02-27T10:07:28.833Z,66.32
2023-02-27T10:08:39.545Z,64.80
2023-02-27T10:09:47.978Z,64.95
2023-02-27T10:11:03.854Z,65.08
2023-02-27T10:12:35.129Z,65.75
2023-02-27T10:13:55.802Z,65.08
2023-02-27T10:15:05.933Z,64.53
2023-02-27T10:16:12.751Z,64.54
2023-02-27T10:17:24.799Z,64.27
2023-02-27T10:19:01.615Z,64.35
2023-02-27T10:20:10.610Z,64.78
2023-02-27T10:21:21.609Z,65.38
2023-02-27T10:22:30.482Z,65.02
2023-02-27T10:23:43.077Z,64.83
2023-02-27T10:24:51.331Z,65.51
2023-02-27T10:25:55.099Z,66.65
2023-02-27T10:26:59.751Z,67.13
2023-02-27T10:28:20.051Z,67.00
2023-02-27T10:29:30.921Z,67.48
2023-02-27T10:30:34.892Z,66.20
2023-02-27T10:31:37.671Z,66.23
2023-02-27T10:32:40.876Z,65.45
2023-02-27T10:33:45.261Z,65.08
2023-02-27T10:34:54.854Z,63.77
2023-02-27T10:35:57.897Z,63.85
2023-02-27T10:37:03.960Z,63.56
2023-02-27T10:38:29.429Z,63.54
2023-02-27T10:39:48.511Z,63.63
2023-02-27T10:40:50.768Z,63.33
2023-02-27T10:41:53.204Z,63.75
2023-02-27T10:42:57.773Z,64.88
2023-02-27T10:44:00.622Z,64.74
2023-02-27T10:45:04.934Z,64.24
2023-02-27T10:46:15.225Z,64.01
2023-02-27T10:47:17.514Z,63.74
2023-02-27T10:48:20.515Z,63.74
2023-02-27T10:49:23.212Z,63.70
2023-02-27T10:50:28.675Z,63.19
2023-02-27T10:51:36.342Z,63.19
2023-02-27T10:52:52.839Z,63.25
2023-02-27T10:54:25.617Z,62.51
2023-02-27T10:55:33.876Z,62.22
2023-02-27T10:56:36.248Z,61.83
2023-02-27T10:57:42.859Z,62.08
2023-02-27T10:58:45.520Z,62.08
2023-02-27T10:59:55.096Z,61.95
2023-02-27T11:01:00.393Z,62.38
2023-02-27T11:02:17.535Z,62.60
2023-02-27T11:03:24.083Z,62.54
2023-02-27T11:04:36.785Z,62.48
2023-02-27T11:05:39.815Z,62.44
2023-02-27T11:06:42.519Z,63.01
2023-02-27T11:07:45.522Z,62.63
2023-02-27T11:09:12.969Z,62.36
2023-02-27T11:10:19.548Z,62.00
2023-02-27T11:11:28.239Z,62.05
2023-02-27T11:12:34.930Z,62.58
2023-02-27T11:13:44.898Z,62.65
2023-02-27T11:14:55.804Z,62.83
2023-02-27T11:16:03.383Z,63.45
2023-02-27T11:17:06.514Z,63.35
2023-02-27T11:18:29.735Z,64.21
2023-02-27T11:19:36.313Z,63.36
2023-02-27T11:20:40.658Z,62.73
2023-02-27T11:22:02.217Z,61.29
2023-02-27T11:23:16.877Z,60.11
2023-02-27T11:24:20.399Z,60.22
2023-02-27T11:25:26.139Z,61.18
2023-02-27T11:26:33.336Z,60.06
2023-02-27T11:27:35.512Z,60.45
2023-02-27T11:28:37.721Z,60.08
2023-02-27T11:29:57.004Z,59.47
2023-02-27T11:31:06.122Z,59.39
2023-02-27T11:32:14.704Z,60.34
2023-02-27T11:33:20.346Z,61.72
2023-02-27T11:34:36.777Z,61.74
2023-02-27T11:35:39.547Z,61.49
2023-02-27T11:36:45.263Z,60.42
2023-02-27T11:37:50.941Z,59.97
2023-02-27T11:38:54.912Z,59.42
2023-02-27T11:40:09.481Z,59.16
2023-02-27T11:41:12.532Z,59.02
2023-02-27T11:42:29.183Z,59.22
2023-02-27T11:43:34.645Z,59.17
2023-02-27T11:44:50.564Z,59.11
2023-02-27T11:46:04.554Z,58.53
2023-02-27T11:47:27.223Z,58.36
2023-02-27T11:48:29.488Z,58.72
2023-02-27T11:50:04.379Z,59.03
2023-02-27T11:51:09.509Z,57.87
2023-02-27T11:52:29.990Z,55.14
2023-02-27T11:53:47.688Z,55.43
2023-02-27T11:54:57.918Z,55.50
2023-02-27T11:56:03.775Z,53.85
2023-02-27T11:57:26.168Z,53.54
2023-02-27T11:58:40.433Z,52.65
2023-02-27T11:59:49.679Z,51.66
2023-02-27T12:00:56.808Z,50.96
2023-02-27T12:02:28.975Z,49.86
2023-02-27T12:03:47.532Z,49.53
2023-02-27T12:04:51.951Z,48.46
2023-02-27T12:06:00.810Z,47.66
2023-02-27T12:07:19.073Z,47.87
2023-02-27T12:08:43.031Z,47.97
2023-02-27T12:09:47.861Z,48.27
2023-02-27T12:11:12.316Z,46.10
2023-02-27T12:12:36.773Z,46.68
2023-02-27T12:13:42.472Z,46.33
2023-02-27T12:14:51.929Z,47.02
2023-02-27T12:16:00.406Z,45.95
2023-02-27T12:17:13.228Z,46.27
2023-02-27T12:18:28.926Z,45.92
2023-02-27T12:20:22.525Z,43.87
2023-02-27T12:21:28.668Z,44.04
2023-02-27T12:22:38.750Z,43.38
2023-02-27T12:23:46.686Z,42.96
2023-02-27T12:25:04.392Z,43.11
2023-02-27T12:26:12.441Z,42.99
2023-02-27T12:27:43.843Z,42.57
2023-02-27T12:29:10.519Z,42.61
2023-02-27T12:30:26.361Z,42.15
2023-02-27T12:31:34.339Z,41.34
2023-02-27T12:32:43.732Z,41.77
2023-02-27T12:33:59.069Z,42.86
2023-02-27T12:35:13.226Z,42.26
2023-02-27T12:36:15.909Z,42.68
2023-02-27T12:37:28.913Z,42.53
2023-02-27T12:38:32.500Z,42.59
2023-02-27T12:39:35.078Z,41.91
2023-02-27T12:40:40.781Z,41.55
2023-02-27T12:42:16.527Z,41.68
2023-02-27T12:43:21.759Z,42.03
2023-02-27T12:44:42.581Z,42.77
2023-02-27T12:46:05.329Z,42.50
2023-02-27T12:47:31.940Z,42.64
2023-02-27T12:48:46.853Z,42.81
2023-02-27T12:50:07.301Z,41.88
2023-02-27T12:51:09.598Z,42.27
2023-02-27T12:52:11.729Z,42.17
2023-02-27T12:53:32.760Z,42.17
2023-02-27T12:55:04.591Z,43.11
2023-02-27T12:56:17.437Z,43.85
2023-02-27T12:57:50.146Z,44.01
2023-02-27T12:59:04.545Z,44.61
2023-02-27T13:00:25.987Z,45.74
2023-02-27T13:01:36.941Z,46.00
2023-02-27T13:02:50.941Z,46.42
2023-02-27T13:04:18.065Z,46.65
2023-02-27T13:05:46.041Z,47.55
2023-02-27T13:07:08.274Z,48.57
2023-02-27T13:08:18.044Z,48.60
2023-02-27T13:09:33.257Z,48.78
2023-02-27T13:11:00.773Z,49.35
2023-02-27T13:12:15.124Z,50.01
2023-02-27T13:13:38.797Z,50.47
2023-02-27T13:14:56.205Z,50.54
2023-02-27T13:16:25.807Z,50.65
2023-02-27T13:17:44.996Z,51.35
2023-02-27T13:19:15.825Z,51.57
2023-02-27T13:20:21.028Z,51.66
2023-02-27T13:21:40.773Z,51.80
2023-02-27T13:22:54.446Z,51.62
2023-02-27T13:24:29.435Z,51.88
2023-02-27T13:25:35.227Z,51.46
2023-02-27T13:26:50.247Z,51.73
2023-02-27T13:28:00.206Z,52.07
2023-02-27T13:29:03.936Z,52.19
2023-02-27T13:30:24.045Z,51.70
2023-02-27T13:31:45.120Z,51.61
2023-02-27T13:33:15.639Z,51.69
2023-02-27T13:34:30.313Z,51.63
2023-02-27T13:36:01.810Z,51.61
2023-02-27T13:37:06.726Z,51.74
2023-02-27T13:38:41.732Z,51.52
2023-02-27T13:39:45.010Z,51.68
2023-02-27T13:40:47.276Z,51.71
2023-02-27T13:41:49.574Z,51.39
2023-02-27T13:42:54.475Z,51.11
2023-02-27T13:44:20.358Z,51.38
2023-02-27T13:45:57.177Z,51.60
2023-02-27T13:47:31.467Z,52.24
2023-02-27T13:48:33.733Z,52.20
2023-02-27T13:49:43.061Z,51.98
2023-02-27T13:50:50.362Z,51.69
2023-02-27T13:51:54.067Z,51.41
2023-02-27T13:52:56.748Z,51.19
2023-02-27T13:54:13.987Z,51.24
2023-02-27T13:55:24.948Z,50.95
2023-02-27T13:56:28.030Z,51.11
2023-02-27T13:57:33.265Z,51.36
2023-02-27T13:58:36.065Z,51.04
2023-02-27T13:59:40.995Z,51.33
2023-02-27T14:00:53.606Z,51.19
2023-02-27T14:01:57.318Z,50.69
2023-02-27T14:03:20.774Z,51.27
2023-02-27T14:04:27.775Z,51.46
2023-02-27T14:05:40.119Z,51.72
2023-02-27T14:06:45.717Z,52.01
2023-02-27T14:08:04.389Z,51.88
2023-02-27T14:09:15.193Z,52.20
2023-02-27T14:10:26.866Z,52.27
2023-02-27T14:11:39.761Z,52.58
2023-02-27T14:12:46.487Z,52.56
2023-02-27T14:13:49.991Z,52.74
2023-02-27T14:14:52.972Z,52.82
2023-02-27T14:15:57.113Z,52.14
2023-02-27T14:17:00.706Z,51.77
2023-02-27T14:18:15.911Z,51.77
2023-02-27T14:19:23.553Z,51.14
2023-02-27T14:20:30.113Z,50.88
2023-02-27T14:22:02.977Z,50.67
2023-02-27T14:23:17.597Z,50.69
2023-02-27T14:24:23.639Z,50.66
2023-02-27T14:25:39.382Z,49.59
2023-02-27T14:26:46.398Z,50.42
2023-02-27T14:27:53.823Z,50.63
2023-02-27T14:28:59.252Z,50.26
2023-02-27T14:30:07.871Z,50.71
2023-02-27T14:31:22.668Z,51.33
2023-02-27T14:32:32.995Z,51.63
2023-02-27T14:33:48.351Z,51.57
2023-02-27T14:34:53.677Z,51.84
2023-02-27T14:36:02.705Z,51.62
2023-02-27T14:37:11.663Z,51.42
2023-02-27T14:38:19.401Z,51.67
2023-02-27T14:39:30.002Z,51.37
2023-02-27T14:40:38.328Z,50.49
2023-02-27T14:41:56.159Z,50.80
2023-02-27T14:43:35.874Z,49.86
2023-02-27T14:44:45.057Z,49.88
2023-02-27T14:45:48.272Z,49.78
2023-02-27T14:46:53.673Z,49.61
2023-02-27T14:47:57.872Z,50.06
2023-02-27T14:49:29.180Z,49.84
2023-02-27T14:50:37.573Z,50.08